createdAt,value
2018-09-08T00:02:24.912Z,12.80
2018-09-08T00:04:53.142Z,12.80
2018-09-08T00:08:18.089Z,12.80
2018-09-08T00:14:13.951Z,12.80
2018-09-08T00:19:57.948Z,12.80
2018-09-08T00:22:35.987Z,12.70
2018-09-08T00:25:34.486Z,12.70
2018-09-08T00:28:40.175Z,12.70
2018-09-08T00:31:12.165Z,12.70
2018-09-08T00:33:40.384Z,12.70
2018-09-08T00:36:08.575Z,12.70
2018-09-08T00:41:36.037Z,12.70
2018-09-08T00:44:04.251Z,12.60
2018-09-08T00:46:32.506Z,12.60
2018-09-08T00:49:00.740Z,12.60
2018-09-08T00:54:39.987Z,12.50
2018-09-08T00:57:08.299Z,12.50
2018-09-08T00:59:54.563Z,12.50
2018-09-08T01:02:22.756Z,12.50
2018-09-08T01:04:50.996Z,12.40
2018-09-08T01:07:25.044Z,12.40
2018-09-08T01:13:02.999Z,12.40
2018-09-08T01:15:31.237Z,12.30
2018-09-08T01:24:18.479Z,12.30
2018-09-08T01:26:56.667Z,12.30
2018-09-08T01:29:24.891Z,12.40
2018-09-08T01:31:53.084Z,12.40
2018-09-08T01:34:21.262Z,12.40
2018-09-08T01:42:12.307Z,12.40
2018-09-08T01:44:40.495Z,12.40
2018-09-08T01:47:08.724Z,12.40
2018-09-08T01:49:40.654Z,12.50
2018-09-08T01:52:12.407Z,12.40
2018-09-08T01:54:40.679Z,12.50
2018-09-08T01:57:08.874Z,12.50
2018-09-08T02:08:57.599Z,12.50
2018-09-08T02:11:25.820Z,12.50
2018-09-08T02:14:33.010Z,12.60
2018-09-08T02:17:01.271Z,12.50
2018-09-08T02:19:29.477Z,12.50
2018-09-08T02:21:57.703Z,12.50
2018-09-08T02:24:25.891Z,12.50
2018-09-08T02:26:54.118Z,12.50
2018-09-08T02:29:22.344Z,12.50
2018-09-08T02:31:50.588Z,12.50
2018-09-08T02:34:19.034Z,12.40
2018-09-08T02:36:53.855Z,12.40
2018-09-08T02:39:22.068Z,12.40
2018-09-08T02:41:50.276Z,12.30
2018-09-08T02:44:18.480Z,12.30
2018-09-08T02:46:46.699Z,12.30
2018-09-08T02:49:14.916Z,12.30
2018-09-08T02:51:42.135Z,12.20
2018-09-08T02:54:09.340Z,12.20
2018-09-08T02:56:36.550Z,12.20
2018-09-08T02:59:03.742Z,12.20
2018-09-08T03:01:30.962Z,12.20
2018-09-08T03:03:58.164Z,12.10
2018-09-08T03:06:25.401Z,12.10
2018-09-08T03:08:52.602Z,12.20
2018-09-08T03:11:19.815Z,12.20
2018-09-08T03:13:47.023Z,12.20
2018-09-08T03:16:14.232Z,12.20
2018-09-08T03:18:41.423Z,12.20
2018-09-08T03:21:08.634Z,12.20
2018-09-08T03:23:35.835Z,12.20
2018-09-08T03:26:03.069Z,12.20
2018-09-08T03:28:30.246Z,12.30
2018-09-08T03:30:57.458Z,12.30
2018-09-08T03:33:24.671Z,12.30
2018-09-08T03:35:51.856Z,12.30
2018-09-08T03:38:19.069Z,12.40
2018-09-08T03:40:46.259Z,12.40
2018-09-08T03:43:13.479Z,12.40
2018-09-08T03:45:40.663Z,12.50
2018-09-08T03:48:07.878Z,12.50
2018-09-08T03:50:35.086Z,12.50
2018-09-08T03:53:02.288Z,12.60
2018-09-08T03:55:29.479Z,12.60
2018-09-08T03:57:56.668Z,12.60
2018-09-08T04:00:23.855Z,12.50
2018-09-08T04:03:06.585Z,12.60
2018-09-08T04:05:37.302Z,12.60
2018-09-08T04:08:05.462Z,12.60
2018-09-08T04:10:33.625Z,12.60
2018-09-08T04:15:46.484Z,12.60
2018-09-08T04:25:10.438Z,12.50
2018-09-08T04:27:38.986Z,12.50
2018-09-08T04:30:07.168Z,12.40
2018-09-08T04:32:39.840Z,12.50
2018-09-08T04:35:08.031Z,12.50
2018-09-08T04:37:36.251Z,12.50
2018-09-08T04:53:03.272Z,12.60
2018-09-08T04:55:31.466Z,12.60
2018-09-08T04:57:59.647Z,12.60
2018-09-08T05:00:27.825Z,12.60
2018-09-08T05:02:56.033Z,12.60
2018-09-08T05:05:24.211Z,12.70
2018-09-08T05:10:47.751Z,12.70
2018-09-08T05:13:15.947Z,12.70
2018-09-08T05:15:44.194Z,12.70
2018-09-08T05:18:12.456Z,12.70
2018-09-08T05:34:17.364Z,12.80
2018-09-08T05:36:45.551Z,12.80
2018-09-08T05:39:13.722Z,12.90
2018-09-08T05:44:57.014Z,12.90
2018-09-08T05:50:33.616Z,12.90
2018-09-08T05:53:01.828Z,13.00
2018-09-08T05:55:30.400Z,13.00
2018-09-08T05:57:58.612Z,13.00
2018-09-08T06:00:26.816Z,13.00
2018-09-08T06:02:55.015Z,13.10
2018-09-08T06:05:23.186Z,13.10
2018-09-08T06:07:51.529Z,13.10
2018-09-08T06:10:19.794Z,13.10
2018-09-08T06:15:33.704Z,13.20
2018-09-08T06:18:01.890Z,13.20
2018-09-08T06:20:30.424Z,13.20
2018-09-08T06:22:58.748Z,13.30
2018-09-08T06:25:27.043Z,13.30
2018-09-08T06:34:02.914Z,13.40
2018-09-08T06:39:13.915Z,13.50
2018-09-08T06:41:42.517Z,13.50
2018-09-08T06:44:10.714Z,13.60
2018-09-08T06:46:38.897Z,13.60
2018-09-08T06:49:11.550Z,13.60
2018-09-08T06:57:30.868Z,13.70
2018-09-08T06:59:59.084Z,13.70
2018-09-08T07:02:27.274Z,13.80
2018-09-08T07:04:55.475Z,13.80
2018-09-08T07:07:23.671Z,13.80
2018-09-08T07:09:51.853Z,13.80
2018-09-08T07:12:20.010Z,13.90
2018-09-08T07:18:07.289Z,13.90
2018-09-08T07:20:35.532Z,14.00
2018-09-08T07:23:04.904Z,14.00
2018-09-08T07:25:36.236Z,14.00
2018-09-08T07:28:04.775Z,14.00
2018-09-08T07:30:32.951Z,14.10
2018-09-08T07:33:01.115Z,14.10
2018-09-08T07:39:02.244Z,14.20
2018-09-08T07:41:30.422Z,14.30
2018-09-08T07:43:58.601Z,14.30
2018-09-08T07:46:26.758Z,14.40
2018-09-08T07:48:54.954Z,14.40
2018-09-08T07:51:23.114Z,14.40
2018-09-08T07:53:51.342Z,14.50
2018-09-08T07:56:24.491Z,14.50
2018-09-08T08:02:09.084Z,14.60
2018-09-08T08:04:37.279Z,14.70
2018-09-08T08:09:48.644Z,14.70
2018-09-08T08:12:16.920Z,14.80
2018-09-08T08:14:45.100Z,14.80
2018-09-08T08:17:13.311Z,14.80
2018-09-08T08:19:41.514Z,14.90
2018-09-08T08:22:11.084Z,14.90
2018-09-08T08:24:39.279Z,15.00
2018-09-08T08:27:07.465Z,15.00
2018-09-08T08:29:35.692Z,15.10
2018-09-08T08:32:03.857Z,15.20
2018-09-08T08:45:15.607Z,15.60
2018-09-08T08:47:44.489Z,15.70
2018-09-08T08:53:18.442Z,15.90
2018-09-08T08:55:46.677Z,15.90
2018-09-08T08:58:14.830Z,16.00
2018-09-08T09:00:43.188Z,16.10
2018-09-08T09:03:11.400Z,16.10
2018-09-08T09:05:39.603Z,16.20
2018-09-08T09:08:07.823Z,16.20
2018-09-08T09:10:37.480Z,16.30
2018-09-08T09:13:05.769Z,16.30
2018-09-08T09:15:34.213Z,16.40
2018-09-08T09:18:02.022Z,16.50
2018-09-08T09:23:39.561Z,16.60
2018-09-08T09:26:07.759Z,16.60
2018-09-08T09:28:36.229Z,16.60
2018-09-08T09:31:04.411Z,16.50
2018-09-08T09:33:32.628Z,16.50
2018-09-08T09:36:00.816Z,16.50
2018-09-08T09:38:29.073Z,16.50
2018-09-08T09:40:57.244Z,16.60
2018-09-08T09:43:25.749Z,16.70
2018-09-08T09:45:58.489Z,16.80
2018-09-08T09:54:00.181Z,16.90
2018-09-08T09:56:28.505Z,16.90
2018-09-08T09:58:56.796Z,17.00
2018-09-08T10:01:30.441Z,17.00
2018-09-08T10:03:58.632Z,17.10
2018-09-08T10:06:26.935Z,17.10
2018-09-08T10:08:55.144Z,17.10
2018-09-08T10:11:23.328Z,17.20
2018-09-08T10:13:52.309Z,17.20
2018-09-08T10:22:17.707Z,17.30
2018-09-08T10:24:45.879Z,17.40
2018-09-08T10:32:57.946Z,17.60
2018-09-08T10:35:26.122Z,17.70
2018-09-08T10:37:54.324Z,17.70
2018-09-08T10:40:22.568Z,17.80
2018-09-08T10:42:50.726Z,17.90
2018-09-08T11:00:00.168Z,18.00
2018-09-08T11:02:28.966Z,18.30
2018-09-08T11:04:56.992Z,18.10
2018-09-08T11:07:25.203Z,18.00
2018-09-08T11:12:39.591Z,17.90
2018-09-08T11:27:58.720Z,17.80
2018-09-08T11:33:25.303Z,18.00
2018-09-08T11:35:53.480Z,18.10
2018-09-08T11:38:21.795Z,18.40
2018-09-08T11:40:49.870Z,18.50
2018-09-08T11:43:18.249Z,18.50
2018-09-08T11:48:42.214Z,18.50
2018-09-08T11:57:05.293Z,18.70
2018-09-08T11:59:33.574Z,18.90
2018-09-08T12:02:01.754Z,19.10
2018-09-08T12:13:08.843Z,19.30
2018-09-08T12:15:37.040Z,19.40
2018-09-08T12:18:05.415Z,19.40
2018-09-08T12:23:26.083Z,19.20
2018-09-08T12:25:54.281Z,19.20
2018-09-08T12:28:22.497Z,19.20
2018-09-08T12:30:51.274Z,19.20
2018-09-08T12:33:19.447Z,19.20
2018-09-08T12:35:47.641Z,19.30
2018-09-08T12:47:05.106Z,19.90
2018-09-08T12:54:14.476Z,20.00
2018-09-08T13:05:56.943Z,20.50
2018-09-08T13:20:02.448Z,20.90
2018-09-08T13:25:23.799Z,21.10
2018-09-08T13:28:17.924Z,21.30
2018-09-08T13:36:33.285Z,21.80
2018-09-08T13:42:14.141Z,22.10
2018-09-08T14:04:36.883Z,23.20
2018-09-08T14:09:58.001Z,23.50
2018-09-08T14:15:19.272Z,23.70
2018-09-08T14:17:47.390Z,23.70
2018-09-08T14:20:16.343Z,23.80
2018-09-08T14:25:58.713Z,24.10
2018-09-08T14:28:26.924Z,24.20
2018-09-08T14:30:58.811Z,24.30
2018-09-08T14:33:46.687Z,24.50
2018-09-08T14:36:14.885Z,24.60
2018-09-08T14:41:35.561Z,24.50
2018-09-08T14:44:09.824Z,24.50
2018-09-08T14:52:23.337Z,24.70
2018-09-08T15:03:29.814Z,25.30
2018-09-08T15:05:58.113Z,25.20
2018-09-08T15:08:44.602Z,25.30
2018-09-08T15:11:21.240Z,25.30
2018-09-08T15:14:11.997Z,25.20
2018-09-08T15:19:33.519Z,25.20
2018-09-08T15:25:19.287Z,25.10
2018-09-08T15:27:49.997Z,25.10
2018-09-08T15:30:18.388Z,25.10
2018-09-08T15:33:42.837Z,25.20
2018-09-08T15:36:11.287Z,25.20
2018-09-08T15:38:39.469Z,25.40
2018-09-08T15:41:11.791Z,25.50
2018-09-08T15:43:51.090Z,25.50
2018-09-08T15:49:21.866Z,25.70
2018-09-08T15:51:50.128Z,25.80
2018-09-08T15:57:11.305Z,26.30
2018-09-08T15:59:39.495Z,26.50
2018-09-08T16:07:53.896Z,27.30
2018-09-08T16:10:22.245Z,27.60
2018-09-08T16:12:50.487Z,27.90
2018-09-08T16:15:18.670Z,28.00
2018-09-08T16:17:46.888Z,27.90
2018-09-08T16:20:16.114Z,27.40
2018-09-08T16:22:44.311Z,26.70
2018-09-08T16:25:29.061Z,26.10
2018-09-08T16:27:57.274Z,25.60
2018-09-08T16:30:25.536Z,24.90
2018-09-08T16:35:46.191Z,23.90
2018-09-08T16:38:14.402Z,23.40
2018-09-08T16:43:45.047Z,22.70
2018-09-08T16:49:18.839Z,22.10
2018-09-08T16:51:50.492Z,21.90
2018-09-08T16:55:10.630Z,21.70
2018-09-08T16:57:44.690Z,21.50
2018-09-08T17:03:06.258Z,21.10
2018-09-08T17:08:46.485Z,20.80
2018-09-08T17:11:14.676Z,20.60
2018-09-08T17:13:42.874Z,20.50
2018-09-08T17:16:11.075Z,20.40
2018-09-08T17:18:39.384Z,20.30
2018-09-08T17:21:07.556Z,20.20
2018-09-08T17:23:35.761Z,20.20
2018-09-08T17:26:04.092Z,20.10
2018-09-08T17:28:32.291Z,20.00
2018-09-08T17:33:53.315Z,19.80
2018-09-08T17:36:21.521Z,19.70
2018-09-08T17:38:57.378Z,19.60
2018-09-08T17:41:25.499Z,19.50
2018-09-08T17:43:53.732Z,19.50
2018-09-08T17:46:21.973Z,19.40
2018-09-08T17:51:43.218Z,19.20
2018-09-08T17:54:11.563Z,19.10
2018-09-08T17:56:44.482Z,19.00
2018-09-08T17:59:12.983Z,18.90
2018-09-08T18:01:41.181Z,18.80
2018-09-08T18:04:27.062Z,18.70
2018-09-08T18:06:55.332Z,18.60
2018-09-08T18:09:23.589Z,18.50
2018-09-08T18:11:51.836Z,18.40
2018-09-08T18:14:20.475Z,18.30
2018-09-08T18:19:42.419Z,18.10
2018-09-08T18:25:24.924Z,18.00
2018-09-08T18:27:53.135Z,17.80
2018-09-08T18:30:21.306Z,17.70
2018-09-08T18:36:00.915Z,17.60
2018-09-08T18:38:29.486Z,17.50
2018-09-08T18:44:08.062Z,17.40
2018-09-08T18:55:53.496Z,17.20
2018-09-08T19:01:14.878Z,17.00
2018-09-08T19:10:03.252Z,16.90
2018-09-08T19:12:31.604Z,16.80
2018-09-08T19:15:09.558Z,16.80
2018-09-08T19:20:37.725Z,16.70
2018-09-08T19:29:21.007Z,16.50
2018-09-08T20:00:31.868Z,15.80
2018-09-08T20:03:18.885Z,15.70
2018-09-08T20:11:52.324Z,15.60
2018-09-08T20:20:07.054Z,15.50
2018-09-08T20:26:08.191Z,15.40
2018-09-08T20:53:43.994Z,15.10
2018-09-08T20:56:12.241Z,14.90
2018-09-08T20:59:06.400Z,14.80
2018-09-08T21:04:27.598Z,14.80
2018-09-08T21:12:41.249Z,14.70
2018-09-08T21:15:28.064Z,14.60
2018-09-08T21:17:56.252Z,14.60
2018-09-08T21:26:10.148Z,14.50
2018-09-08T21:28:38.641Z,14.40
2018-09-08T21:31:06.834Z,14.40
2018-09-08T21:33:35.043Z,14.30
2018-09-08T21:36:03.239Z,14.30
2018-09-08T21:38:31.435Z,14.30
2018-09-08T21:46:35.460Z,14.20
2018-09-08T21:51:56.582Z,14.10
2018-09-08T21:54:24.762Z,14.10
2018-09-08T21:56:53.571Z,14.00
2018-09-08T21:59:21.759Z,14.00
2018-09-08T22:04:54.647Z,13.90
2018-09-08T22:07:22.830Z,13.90
2018-09-08T22:12:45.966Z,13.80
2018-09-08T22:31:44.941Z,13.70
2018-09-08T22:34:13.187Z,13.60
2018-09-08T22:36:43.083Z,13.60
2018-09-08T22:39:11.283Z,13.60
2018-09-08T22:41:39.539Z,13.50
2018-09-08T22:44:07.732Z,13.50
2018-09-08T22:46:35.951Z,13.50
2018-09-08T22:49:04.150Z,13.50
2018-09-08T22:51:32.331Z,13.50
2018-09-08T22:56:53.880Z,13.50
2018-09-08T23:08:54.741Z,13.40
2018-09-08T23:18:05.848Z,13.30
2018-09-08T23:24:21.800Z,13.30
2018-09-08T23:26:49.980Z,13.30
2018-09-08T23:29:18.151Z,13.30
2018-09-08T23:31:46.339Z,13.20
2018-09-08T23:34:14.556Z,13.20
2018-09-08T23:39:16.356Z,13.20
2018-09-08T23:41:44.575Z,13.20
2018-09-08T23:44:12.763Z,13.20
2018-09-08T23:47:17.967Z,13.20
2018-09-08T23:52:38.143Z,13.20
2018-09-08T23:55:06.374Z,13.20
2018-09-08T23:57:34.562Z,13.20
